Time;durP1;ratioP1;P1;durP2;ratioP2;P2;SDS_P1;SDS_P2;PMS_P1;PMS_P2;Temp;Humidity;BMP_temperature;BMP_pressure;BME280_temperature;BME280_humidity;BME280_pressure;Samples;Min_cycle;Max_cycle;Signal;HPM_P1;HPM_P2
2023/11/22 00:01:05;;;;;;;0.10;0.10;;;;;;;4.45;100.00;101816.66;4974755;28;20038;-75
2023/11/22 00:04:00;;;;;;;0.00;0.00;;;;;;;4.49;100.00;101828.81;4980529;28;20461;-75
2023/11/22 00:06:27;;;;;;;0.00;0.00;;;;;;;4.41;100.00;101809.97;4976302;28;20513;-74
2023/11/22 00:08:52;;;;;;;0.00;0.00;;;;;;;4.39;100.00;101822.84;4970962;28;20170;-77
2023/11/22 00:11:21;;;;;;;0.00;0.00;;;;;;;4.45;100.00;101832.91;4975250;28;20085;-75
2023/11/22 00:14:09;;;;;;;0.00;0.00;;;;;;;4.59;100.00;101849.34;4957574;28;20038;-75
2023/11/22 00:16:37;;;;;;;0.00;0.00;;;;;;;4.55;100.00;101857.81;4965932;28;20026;-74
2023/11/22 00:19:02;;;;;;;0.10;0.10;;;;;;;4.35;100.00;101816.13;4974900;28;20656;-74
2023/11/22 00:21:30;;;;;;;0.00;0.00;;;;;;;4.31;100.00;101820.28;4949038;28;20044;-77
2023/11/22 00:23:56;;;;;;;0.00;0.00;;;;;;;4.20;100.00;101813.47;4962885;28;20057;-75
2023/11/22 00:26:21;;;;;;;0.00;0.00;;;;;;;4.30;100.00;101835.66;4978751;28;20462;-73
2023/11/22 00:28:47;;;;;;;0.00;0.00;;;;;;;4.32;100.00;101841.75;4941970;28;20477;-72
2023/11/22 00:31:14;;;;;;;0.00;0.00;;;;;;;4.18;100.00;101827.19;4972792;28;20046;-74
2023/11/22 00:33:42;;;;;;;0.00;0.00;;;;;;;4.24;100.00;101844.56;4974505;28;20046;-73
2023/11/22 00:36:10;;;;;;;0.08;0.08;;;;;;;4.12;100.00;101832.53;4976879;28;20109;-73
2023/11/22 00:38:37;;;;;;;0.00;0.00;;;;;;;4.21;100.00;101839.53;4970122;28;20033;-73
2023/11/22 00:41:08;;;;;;;0.00;0.00;;;;;;;4.24;100.00;101852.69;4959744;28;20042;-74
2023/11/22 00:43:33;;;;;;;0.00;0.00;;;;;;;4.16;100.00;101839.22;4970582;28;20026;-75
2023/11/22 00:45:59;;;;;;;0.00;0.00;;;;;;;4.30;100.00;101873.56;4985282;28;20022;-74
2023/11/22 00:48:28;;;;;;;0.00;0.00;;;;;;;4.26;100.00;101858.72;4992794;28;20034;-74
2023/11/22 00:50:59;;;;;;;0.00;0.00;;;;;;;4.20;100.00;101837.81;4971866;28;20118;-76
2023/11/22 00:53:25;;;;;;;0.00;0.00;;;;;;;4.46;100.00;101871.69;4985614;28;20113;-74
2023/11/22 00:55:50;;;;;;;0.00;0.00;;;;;;;4.32;100.00;101843.59;4983388;28;20129;-74
2023/11/22 00:58:16;;;;;;;0.00;0.00;;;;;;;4.39;100.00;101854.53;4963936;28;20473;-74
2023/11/22 01:00:41;;;;;;;0.10;0.10;;;;;;;4.51;100.00;101869.25;4978069;28;20388;-73
2023/11/22 01:03:11;;;;;;;0.00;0.00;;;;;;;4.58;100.00;101885.59;4964032;28;20057;-73
2023/11/22 01:05:37;;;;;;;0.00;0.00;;;;;;;4.61;100.00;101879.78;4979048;28;20228;-75
2023/11/22 01:08:02;;;;;;;0.00;0.00;;;;;;;4.62;100.00;101876.88;4961769;28;20125;-74
2023/11/22 01:10:28;;;;;;;0.00;0.00;;;;;;;4.70;100.00;101876.78;4966623;28;20033;-74
2023/11/22 01:12:53;;;;;;;0.00;0.00;;;;;;;4.74;100.00;101868.25;4965443;28;20030;-72
2023/11/22 01:15:19;;;;;;;0.00;0.00;;;;;;;4.76;100.00;101877.88;4955844;28;20120;-73
2023/11/22 01:17:45;;;;;;;0.00;0.00;;;;;;;4.67;100.00;101868.19;4966154;28;20069;-73
2023/11/22 01:20:11;;;;;;;0.00;0.00;;;;;;;4.56;100.00;101855.97;4980039;28;20031;-73
2023/11/22 01:22:37;;;;;;;0.00;0.00;;;;;;;4.63;100.00;101864.16;4972700;28;20380;-73
2023/11/22 01:25:04;;;;;;;0.00;0.00;;;;;;;4.62;100.00;101848.97;4989785;28;20030;-73
2023/11/22 01:27:30;;;;;;;0.00;0.00;;;;;;;4.65;100.00;101851.28;4967628;28;20065;-75
2023/11/22 01:29:56;;;;;;;0.00;0.00;;;;;;;4.61;100.00;101847.28;4962350;28;20656;-74
2023/11/22 01:32:21;;;;;;;0.00;0.00;;;;;;;4.61;100.00;101853.53;4965073;28;20393;-73
2023/11/22 01:34:47;;;;;;;0.00;0.00;;;;;;;4.44;100.00;101836.69;4989001;28;20045;-73
2023/11/22 01:37:13;;;;;;;0.00;0.00;;;;;;;4.48;100.00;101850.66;4960057;28;20042;-73
2023/11/22 01:39:41;;;;;;;0.10;0.10;;;;;;;4.36;100.00;101840.31;4968195;28;20029;-73
2023/11/22 01:42:07;;;;;;;0.00;0.00;;;;;;;4.28;100.00;101843.16;4970678;28;20034;-73
2023/11/22 01:44:33;;;;;;;0.10;0.10;;;;;;;4.25;100.00;101854.38;4953802;28;20118;-73
2023/11/22 01:46:58;;;;;;;0.00;0.00;;;;;;;4.24;100.00;101852.69;4958796;28;20481;-74
2023/11/22 01:49:24;;;;;;;0.00;0.00;;;;;;;4.16;100.00;101850.06;4960491;28;20037;-74
2023/11/22 01:51:50;;;;;;;0.00;0.00;;;;;;;4.11;100.00;101847.09;4975406;28;20054;-75
2023/11/22 01:54:18;;;;;;;0.00;0.00;;;;;;;4.04;100.00;101835.34;4969703;28;20030;-74
2023/11/22 01:56:44;;;;;;;0.00;0.00;;;;;;;4.02;100.00;101841.78;4984531;28;20022;-73
2023/11/22 01:59:10;;;;;;;0.00;0.00;;;;;;;4.13;100.00;101872.09;4981572;28;20027;-73
2023/11/22 02:01:35;;;;;;;0.00;0.00;;;;;;;4.00;100.00;101856.50;4991207;28;20749;-74
2023/11/22 02:04:01;;;;;;;0.00;0.00;;;;;;;4.08;100.00;101869.13;4972271;28;20030;-74
2023/11/22 02:06:26;;;;;;;0.00;0.00;;;;;;;4.13;100.00;101877.50;4974923;28;21150;-74
2023/11/22 02:08:52;;;;;;;0.00;0.00;;;;;;;4.04;100.00;101857.00;4944088;28;20065;-74
2023/11/22 02:11:22;;;;;;;0.00;0.00;;;;;;;4.13;100.00;101872.09;4972126;28;20030;-74
2023/11/22 02:13:50;;;;;;;0.00;0.00;;;;;;;4.16;100.00;101872.59;4977281;28;20495;-73
2023/11/22 02:16:19;;;;;;;0.00;0.00;;;;;;;4.15;100.00;101865.47;4957410;28;20042;-75
2023/11/22 02:18:47;;;;;;;0.00;0.00;;;;;;;4.22;100.00;101876.41;4976184;28;20034;-73
2023/11/22 02:21:12;;;;;;;0.00;0.00;;;;;;;4.18;100.00;101848.03;4982131;28;20030;-74
2023/11/22 02:23:37;;;;;;;0.00;0.00;;;;;;;4.37;100.00;101857.41;4983387;28;20023;-75
2023/11/22 02:26:03;;;;;;;0.00;0.00;;;;;;;4.46;100.00;101850.03;4979435;28;20603;-74
2023/11/22 02:28:28;;;;;;;0.10;0.10;;;;;;;4.64;100.00;101863.97;4963523;28;20042;-73
2023/11/22 02:30:57;;;;;;;0.00;0.00;;;;;;;4.69;100.00;101850.69;4977553;28;20038;-73
2023/11/22 02:33:22;;;;;;;0.00;0.00;;;;;;;4.75;100.00;101842.84;4973433;28;20034;-72
2023/11/22 02:35:48;;;;;;;0.00;0.00;;;;;;;4.90;100.00;101863.41;4958028;28;20027;-73
2023/11/22 02:38:13;;;;;;;0.00;0.00;;;;;;;4.92;100.00;101855.13;4968246;28;20464;-73
2023/11/22 02:40:39;;;;;;;0.00;0.00;;;;;;;4.96;100.00;101856.38;4950163;28;20026;-73
2023/11/22 02:43:08;;;;;;;0.00;0.00;;;;;;;5.03;100.00;101860.00;4968692;28;20382;-72
2023/11/22 02:45:34;;;;;;;0.00;0.00;;;;;;;5.10;100.00;101872.81;4964776;28;20057;-73
2023/11/22 02:48:01;;;;;;;0.00;0.00;;;;;;;5.15;100.00;101875.75;4979983;28;20054;-74
2023/11/22 02:50:27;;;;;;;0.00;0.00;;;;;;;5.20;100.00;101873.31;4974436;28;20039;-74
2023/11/22 02:52:53;;;;;;;0.00;0.00;;;;;;;5.22;100.00;101882.91;4975702;28;20031;-73
2023/11/22 02:55:19;;;;;;;0.00;0.00;;;;;;;5.24;100.00;101874.59;4970978;28;20125;-73
2023/11/22 02:57:45;;;;;;;0.00;0.00;;;;;;;5.25;100.00;101870.84;4969584;28;20026;-73
2023/11/22 03:00:14;;;;;;;0.10;0.10;;;;;;;5.22;100.00;101866.66;4975257;28;20029;-72
2023/11/22 03:02:41;;;;;;;0.00;0.00;;;;;;;5.30;100.00;101865.69;4980420;28;20079;-73
2023/11/22 03:05:10;;;;;;;0.00;0.00;;;;;;;5.29;100.00;101858.56;4965541;28;20393;-73
2023/11/22 03:07:36;;;;;;;0.00;0.00;;;;;;;5.30;100.00;101857.56;4969649;28;20034;-72
2023/11/22 03:10:03;;;;;;;0.00;0.00;;;;;;;5.39;100.00;101872.63;4992682;28;20105;-72
2023/11/22 03:12:29;;;;;;;0.00;0.00;;;;;;;5.40;100.00;101868.91;4971059;28;20027;-73
2023/11/22 03:15:00;;;;;;;0.00;0.00;;;;;;;5.37;100.00;101853.03;4952402;28;20593;-74
2023/11/22 03:17:28;;;;;;;0.00;0.00;;;;;;;5.30;100.00;101852.13;4949111;28;20408;-73
2023/11/22 03:19:53;;;;;;;0.00;0.00;;;;;;;5.40;100.00;101874.31;4983906;28;20023;-74
2023/11/22 03:22:19;;;;;;;0.00;0.00;;;;;;;5.34;100.00;101864.22;4975333;28;20030;-73
2023/11/22 03:24:45;;;;;;;0.00;0.00;;;;;;;5.36;100.00;101873.03;4964216;28;20030;-73
2023/11/22 03:27:10;;;;;;;0.00;0.00;;;;;;;5.35;100.00;101871.34;4966805;28;20121;-73
2023/11/22 03:29:37;;;;;;;0.00;0.00;;;;;;;5.29;100.00;101852.31;4980753;28;20023;-74
2023/11/22 03:32:03;;;;;;;0.00;0.00;;;;;;;5.23;100.00;101849.34;4963829;28;20043;-74
2023/11/22 03:34:29;;;;;;;0.00;0.00;;;;;;;5.28;100.00;101864.19;4977480;28;20108;-74
2023/11/22 03:36:54;;;;;;;0.00;0.00;;;;;;;5.21;100.00;101858.69;4970363;28;20485;-74
2023/11/22 03:39:20;;;;;;;0.00;0.00;;;;;;;5.20;100.00;101855.16;4946859;28;21113;-74
2023/11/22 03:41:45;;;;;;;0.00;0.00;;;;;;;5.23;100.00;101859.38;4954497;28;20023;-73
2023/11/22 03:44:11;;;;;;;0.00;0.00;;;;;;;5.12;100.00;101838.19;4954814;28;20037;-73
2023/11/22 03:46:37;;;;;;;0.00;0.00;;;;;;;5.19;100.00;101860.78;4942913;28;20037;-74
2023/11/22 03:49:04;;;;;;;0.00;0.00;;;;;;;5.33;100.00;101878.84;4981641;28;20045;-74
2023/11/22 03:51:30;;;;;;;0.00;0.00;;;;;;;5.35;100.00;101887.63;4963292;28;20030;-74
2023/11/22 03:53:55;;;;;;;0.00;0.00;;;;;;;5.38;100.00;101876.38;4958979;28;20080;-73
2023/11/22 03:56:21;;;;;;;0.00;0.00;;;;;;;5.38;100.00;101867.41;4961694;28;20015;-73
2023/11/22 03:58:48;;;;;;;0.00;0.00;;;;;;;5.44;100.00;101873.94;4973705;28;20031;-73
2023/11/22 04:01:13;;;;;;;0.00;0.00;;;;;;;5.48;100.00;101875.22;4962231;28;20054;-74
2023/11/22 04:03:40;;;;;;;0.00;0.00;;;;;;;5.53;100.00;101889.03;4986060;28;20065;-73
2023/11/22 04:06:06;;;;;;;0.00;0.00;;;;;;;5.56;100.00;101883.19;4966639;28;20405;-73
2023/11/22 04:08:31;;;;;;;0.00;0.00;;;;;;;5.58;100.00;101881.97;4957185;28;20027;-74
2023/11/22 04:10:56;;;;;;;0.00;0.00;;;;;;;5.54;100.00;101867.13;4965172;28;20041;-73
2023/11/22 04:13:24;;;;;;;0.00;0.00;;;;;;;5.59;100.00;101878.22;4961771;28;20018;-72
2023/11/22 04:15:50;;;;;;;0.00;0.00;;;;;;;5.60;100.00;101884.50;4958031;28;20397;-72
2023/11/22 04:18:15;;;;;;;0.00;0.00;;;;;;;5.62;100.00;101884.28;4947146;28;20046;-73
2023/11/22 04:20:41;;;;;;;0.00;0.00;;;;;;;5.63;100.00;101878.66;4972835;28;20034;-72
2023/11/22 04:23:06;;;;;;;0.00;0.00;;;;;;;5.57;100.00;101874.03;4986001;28;20031;-72
2023/11/22 04:25:34;;;;;;;0.00;0.00;;;;;;;5.68;100.00;101897.91;4980229;28;20026;-73
2023/11/22 04:27:59;;;;;;;0.00;0.00;;;;;;;5.67;100.00;101890.81;4967533;28;20488;-73
2023/11/22 04:30:25;;;;;;;0.00;0.00;;;;;;;5.70;100.00;101889.59;4945723;28;20042;-73
2023/11/22 04:32:50;;;;;;;0.00;0.00;;;;;;;5.70;100.00;101882.25;4949951;28;20033;-72
2023/11/22 04:35:15;;;;;;;0.00;0.00;;;;;;;5.71;100.00;101875.81;4965189;28;20023;-73
2023/11/22 04:37:43;;;;;;;0.00;0.00;;;;;;;5.67;100.00;101874.53;4980037;28;20038;-72
2023/11/22 04:40:11;;;;;;;0.00;0.00;;;;;;;5.74;100.00;101886.28;4946070;28;20041;-71
2023/11/22 04:42:36;;;;;;;0.00;0.00;;;;;;;5.71;100.00;101880.38;4984126;28;20376;-72
2023/11/22 04:45:03;;;;;;;0.00;0.00;;;;;;;5.64;100.00;101869.50;4970318;28;20050;-71
2023/11/22 04:47:28;;;;;;;0.00;0.00;;;;;;;5.64;100.00;101880.34;4966483;28;20104;-71
2023/11/22 04:49:54;;;;;;;0.00;0.00;;;;;;;5.61;100.00;101880.75;4983115;28;20189;-72
2023/11/22 04:52:19;;;;;;;0.10;0.10;;;;;;;5.59;100.00;101883.66;4973626;28;20385;-71
2023/11/22 04:54:44;;;;;;;0.00;0.00;;;;;;;5.39;100.00;101847.41;4974823;28;20039;-72
2023/11/22 04:57:10;;;;;;;0.00;0.00;;;;;;;5.55;100.00;101881.53;4982106;28;20082;-72
2023/11/22 04:59:35;;;;;;;0.00;0.00;;;;;;;5.52;100.00;101871.91;4971884;28;20038;-72
2023/11/22 05:02:01;;;;;;;0.00;0.00;;;;;;;5.49;100.00;101860.59;4973301;28;20035;-71
2023/11/22 05:04:29;;;;;;;0.00;0.00;;;;;;;5.57;100.00;101874.84;4943310;28;20078;-72
2023/11/22 05:06:54;;;;;;;0.00;0.00;;;;;;;5.59;100.00;101877.38;4960541;28;20037;-72
2023/11/22 05:09:20;;;;;;;0.00;0.00;;;;;;;5.58;100.00;101881.16;4977940;28;20027;-73
2023/11/22 05:11:45;;;;;;;0.00;0.00;;;;;;;5.63;100.00;101889.53;4974912;28;20027;-72
2023/11/22 05:14:13;;;;;;;0.10;0.10;;;;;;;5.59;100.00;101882.81;4980526;28;20381;-73
2023/11/22 05:16:38;;;;;;;0.00;0.00;;;;;;;5.51;100.00;101874.81;4944462;28;20129;-72
2023/11/22 05:19:03;;;;;;;0.10;0.10;;;;;;;5.42;100.00;101864.09;4973323;28;20376;-72
2023/11/22 05:21:29;;;;;;;0.00;0.00;;;;;;;5.37;100.00;101869.28;4947829;28;20034;-72
2023/11/22 05:23:54;;;;;;;0.10;0.10;;;;;;;5.24;100.00;101867.31;4966257;28;20034;-72
2023/11/22 05:26:21;;;;;;;0.00;0.00;;;;;;;5.20;100.00;101863.28;4974904;28;20042;-72
2023/11/22 05:28:47;;;;;;;0.10;0.10;;;;;;;5.23;100.00;101873.75;4976353;28;20130;-72
2023/11/22 05:31:14;;;;;;;0.00;0.00;;;;;;;5.19;100.00;101868.91;4977249;28;20035;-71
2023/11/22 05:33:39;;;;;;;0.00;0.00;;;;;;;5.26;100.00;101883.38;4952937;28;20038;-73
2023/11/22 05:36:06;;;;;;;0.00;0.00;;;;;;;5.17;100.00;101879.09;4978796;28;20038;-74
2023/11/22 05:38:33;;;;;;;0.10;0.10;;;;;;;5.22;100.00;101882.91;4950184;28;20019;-72
2023/11/22 05:40:59;;;;;;;0.00;0.00;;;;;;;5.24;100.00;101901.69;4965196;28;20034;-73
2023/11/22 05:43:26;;;;;;;0.00;0.00;;;;;;;5.17;100.00;101879.09;4967309;28;20042;-73
2023/11/22 05:45:52;;;;;;;0.00;0.00;;;;;;;5.26;100.00;101899.66;4985398;28;20029;-73
2023/11/22 05:48:19;;;;;;;0.00;0.00;;;;;;;5.31;100.00;101897.19;4987512;28;20026;-72
2023/11/22 05:50:45;;;;;;;0.00;0.00;;;;;;;5.26;100.00;101888.81;4986201;28;20175;-72
2023/11/22 05:53:11;;;;;;;0.00;0.00;;;;;;;5.33;100.00;101889.72;4995546;28;20117;-74
2023/11/22 05:55:37;;;;;;;0.00;0.00;;;;;;;5.32;100.00;101888.03;4983671;28;21575;-73
2023/11/22 05:58:03;;;;;;;0.00;0.00;;;;;;;5.16;100.00;101861.19;4970532;28;20034;-73
2023/11/22 06:00:28;;;;;;;0.00;0.00;;;;;;;5.36;100.00;101893.88;4982126;28;20029;-73
2023/11/22 06:02:55;;;;;;;0.00;0.00;;;;;;;5.35;100.00;101887.63;4975007;28;20058;-73
2023/11/22 06:05:21;;;;;;;0.00;0.00;;;;;;;5.32;100.00;101882.59;4969515;28;20028;-73
2023/11/22 06:07:48;;;;;;;0.08;0.08;;;;;;;5.39;100.00;101891.63;4974554;28;20113;-73
2023/11/22 06:10:15;;;;;;;0.00;0.00;;;;;;;5.27;100.00;101865.22;4977610;28;20042;-73
2023/11/22 06:12:41;;;;;;;0.10;0.10;;;;;;;5.30;100.00;101865.69;4981249;28;20035;-72
2023/11/22 06:15:07;;;;;;;0.00;0.00;;;;;;;5.35;100.00;101874.06;4966420;28;20957;-73
2023/11/22 06:17:33;;;;;;;0.00;0.00;;;;;;;5.27;100.00;101862.50;4978319;28;20046;-73
2023/11/22 06:19:59;;;;;;;0.00;0.00;;;;;;;5.28;100.00;101884.00;4975499;28;20429;-72
2023/11/22 06:22:24;;;;;;;0.00;0.00;;;;;;;5.27;100.00;101900.47;4962939;28;20026;-73
2023/11/22 06:24:50;;;;;;;0.00;0.00;;;;;;;5.24;100.00;101896.28;4972491;28;20034;-72
2023/11/22 06:27:15;;;;;;;0.00;0.00;;;;;;;5.15;100.00;101886.59;4959366;28;20026;-72
2023/11/22 06:29:44;;;;;;;0.00;0.00;;;;;;;5.11;100.00;101879.88;4952283;28;20093;-73
2023/11/22 06:32:09;;;;;;;0.00;0.00;;;;;;;5.03;100.00;101884.41;4978977;28;20169;-73
2023/11/22 06:34:36;;;;;;;0.00;0.00;;;;;;;4.99;100.00;101888.53;4960373;28;20192;-72
2023/11/22 06:37:02;;;;;;;0.00;0.00;;;;;;;4.87;100.00;101885.50;4966611;28;20027;-73
2023/11/22 06:39:27;;;;;;;0.00;0.00;;;;;;;4.83;100.00;101872.53;4961378;28;20079;-73
2023/11/22 06:41:52;;;;;;;0.00;0.00;;;;;;;4.91;100.00;101896.81;4939273;28;20379;-72
2023/11/22 06:44:18;;;;;;;0.00;0.00;;;;;;;4.99;100.00;101891.25;4946658;28;20034;-73
2023/11/22 06:46:44;;;;;;;0.00;0.00;;;;;;;4.89;100.00;101869.03;4942576;28;20115;-72
2023/11/22 06:49:09;;;;;;;0.00;0.00;;;;;;;5.01;100.00;101905.47;4983776;28;20120;-72
2023/11/22 06:51:34;;;;;;;0.03;0.03;;;;;;;4.93;100.00;101897.44;4981480;28;20477;-74
2023/11/22 06:54:00;;;;;;;0.00;0.00;;;;;;;4.87;100.00;101895.50;4949762;28;20037;-73
2023/11/22 06:56:25;;;;;;;0.00;0.00;;;;;;;4.75;100.00;101894.34;4964421;28;20031;-73
2023/11/22 06:58:51;;;;;;;0.10;0.10;;;;;;;4.85;100.00;101908.44;4978514;28;20447;-72
2023/11/22 07:01:16;;;;;;;0.00;0.00;;;;;;;4.98;100.00;101910.41;4956804;28;20034;-73
2023/11/22 07:03:42;;;;;;;0.03;0.03;;;;;;;5.18;100.00;101929.59;4974193;28;20088;-75
2023/11/22 07:06:07;;;;;;;0.00;0.00;;;;;;;5.27;100.00;101922.19;4987117;28;20036;-74
2023/11/22 07:08:38;;;;;;;0.10;0.10;;;;;;;5.28;100.00;101911.13;4996861;28;20118;-75
2023/11/22 07:11:03;;;;;;;0.00;0.00;;;;;;;5.44;100.00;101918.16;4976390;28;20031;-75
2023/11/22 07:13:31;;;;;;;0.00;0.00;;;;;;;5.42;100.00;101904.81;4971084;28;20061;-75
2023/11/22 07:15:56;;;;;;;0.00;0.00;;;;;;;5.29;100.00;101893.00;4977434;28;20034;-74
2023/11/22 07:18:24;;;;;;;0.00;0.00;;;;;;;5.29;100.00;101884.88;4960202;28;20065;-74
2023/11/22 07:20:53;;;;;;;0.00;0.00;;;;;;;5.30;100.00;101892.81;4974444;28;20462;-76
2023/11/22 07:23:19;;;;;;;0.10;0.10;;;;;;;5.30;100.00;101898.25;4961227;28;20089;-73
2023/11/22 07:25:45;;;;;;;0.00;0.00;;;;;;;5.33;100.00;101903.28;4960575;28;20113;-74
2023/11/22 07:28:10;;;;;;;0.10;0.10;;;;;;;5.44;100.00;101911.91;4981466;28;20126;-75
2023/11/22 07:30:38;;;;;;;0.00;0.00;;;;;;;5.58;100.00;101941.69;4971512;28;20026;-74
2023/11/22 07:35:53;;;;;;;0.00;0.00;;;;;;;5.52;100.00;101911.75;4967457;28;20035;-74
2023/11/22 07:38:21;;;;;;;0.10;0.10;;;;;;;5.68;100.00;101929.63;4942460;28;20023;-74
2023/11/22 07:40:50;;;;;;;0.00;0.00;;;;;;;5.64;100.00;101918.34;4992143;28;20384;-76
2023/11/22 07:43:16;;;;;;;0.00;0.00;;;;;;;5.83;100.00;101937.72;4958597;28;20031;-77
2023/11/22 07:45:48;;;;;;;0.10;0.10;;;;;;;5.60;100.00;101901.59;4964942;28;20030;-78
2023/11/22 07:48:14;;;;;;;0.10;0.10;;;;;;;5.77;100.00;101907.59;4979159;28;20085;-76
2023/11/22 07:50:43;;;;;;;0.00;0.00;;;;;;;5.96;100.00;101943.22;4978769;28;20027;-73
2023/11/22 07:53:11;;;;;;;0.00;0.00;;;;;;;5.90;100.00;101944.03;4974104;28;20038;-76
2023/11/22 07:55:37;;;;;;;0.00;0.00;;;;;;;5.68;100.00;101941.34;4975738;28;20066;-74
2023/11/22 07:58:03;;;;;;;0.00;0.00;;;;;;;5.63;100.00;101943.78;4973318;28;20038;-73
2023/11/22 08:00:29;;;;;;;0.00;0.00;;;;;;;5.59;100.00;101953.34;4980491;28;20026;-72
2023/11/22 08:02:55;;;;;;;0.00;0.00;;;;;;;5.45;100.00;101940.69;4965398;28;20034;-75
2023/11/22 08:05:23;;;;;;;0.00;0.00;;;;;;;5.53;100.00;101948.72;4950155;28;20034;-74
2023/11/22 08:07:49;;;;;;;0.00;0.00;;;;;;;5.52;100.00;101947.03;4965383;28;20092;-74
2023/11/22 08:10:18;;;;;;;0.00;0.00;;;;;;;5.55;100.00;101949.38;4985350;28;20472;-75
2023/11/22 08:12:49;;;;;;;0.00;0.00;;;;;;;5.61;100.00;101951.31;4958278;28;20022;-75
2023/11/22 08:15:16;;;;;;;0.00;0.00;;;;;;;5.66;100.00;101929.84;4990814;28;20049;-74
2023/11/22 08:17:45;;;;;;;0.00;0.00;;;;;;;5.76;100.00;101938.47;4961363;28;20475;-75
2023/11/22 08:20:13;;;;;;;0.00;0.00;;;;;;;5.83;100.00;101932.28;4985515;28;20027;-74
2023/11/22 08:22:41;;;;;;;0.00;0.00;;;;;;;5.88;100.00;101933.34;4930617;28;20039;-73
2023/11/22 08:25:08;;;;;;;0.00;0.00;;;;;;;5.96;100.00;101937.81;4964303;28;20030;-75
2023/11/22 08:27:36;;;;;;;0.00;0.00;;;;;;;6.00;100.00;101928.25;4975821;28;20022;-74
2023/11/22 08:30:12;;;;;;;0.00;0.00;;;;;;;6.01;100.00;101932.63;4972112;28;20026;-74
2023/11/22 08:32:47;;;;;;;0.00;0.00;;;;;;;6.05;100.00;101942.06;4977852;28;20130;-75
2023/11/22 08:35:12;;;;;;;0.00;0.00;;;;;;;6.17;100.00;101945.06;4963439;28;20389;-74
2023/11/22 08:37:41;;;;;;;0.00;0.00;;;;;;;6.13;100.00;101937.50;4948663;28;20057;-74
2023/11/22 08:40:07;;;;;;;0.10;0.10;;;;;;;6.17;100.00;101944.22;4976512;28;20023;-75
2023/11/22 08:42:36;;;;;;;0.00;0.00;;;;;;;6.23;100.00;101946.13;4978483;28;20030;-75
2023/11/22 08:45:03;;;;;;;0.00;0.00;;;;;;;6.17;100.00;101939.63;4982168;28;20441;-74
2023/11/22 08:47:30;;;;;;;0.00;0.00;;;;;;;6.25;100.00;101938.63;4972731;28;20293;-74
2023/11/22 08:49:56;;;;;;;0.00;0.00;;;;;;;6.28;100.00;101938.25;4974877;28;20035;-75
2023/11/22 08:52:23;;;;;;;0.00;0.00;;;;;;;6.32;99.65;101936.78;4975586;28;20037;-73
2023/11/22 08:54:49;;;;;;;0.00;0.00;;;;;;;6.39;100.00;101942.25;4947036;28;20054;-73
2023/11/22 08:57:15;;;;;;;0.00;0.00;;;;;;;6.47;99.92;101939.38;4959382;28;20125;-75
2023/11/22 08:59:40;;;;;;;0.00;0.00;;;;;;;6.46;99.45;101927.66;4963762;28;20394;-75
2023/11/22 09:02:12;;;;;;;0.00;0.00;;;;;;;6.47;99.16;101923.09;4959866;28;20061;-75
2023/11/22 09:04:38;;;;;;;0.00;0.00;;;;;;;6.54;99.49;101923.09;4972177;28;20062;-75
2023/11/22 09:07:05;;;;;;;0.00;0.00;;;;;;;6.58;99.31;101924.38;4943564;28;20061;-75
2023/11/22 09:09:31;;;;;;;0.00;0.00;;;;;;;6.73;99.46;101933.22;4962636;28;20118;-75
2023/11/22 09:12:27;;;;;;;0.00;0.00;;;;;;;6.74;98.58;101913.13;4986276;28;20101;-77
2023/11/22 09:15:21;;;;;;;;;;;;;;;;;;;;;
2023/11/22 09:17:52;;;;;;;0.00;0.00;;;;;;;6.79;98.04;101871.72;4976716;28;20050;-76
2023/11/22 09:21:04;;;;;;;0.00;0.00;;;;;;;6.85;97.62;101870.06;4956057;28;20050;-76
2023/11/22 09:24:11;;;;;;;;;;;;;;;;;;;;;
2023/11/22 09:27:20;;;;;;;;;;;;;;;;;;;;;
2023/11/22 09:30:21;;;;;;;;;;;;;;;;;;;;;
2023/11/22 09:33:28;;;;;;;0.00;0.00;;;;;;;6.97;95.58;101830.38;4977099;28;20022;-76
2023/11/22 09:36:01;;;;;;;0.00;0.00;;;;;;;7.22;95.11;101865.13;4975167;28;20034;-76
2023/11/22 09:38:31;;;;;;;0.00;0.00;;;;;;;7.22;95.13;101865.13;4965719;28;20045;-75
2023/11/22 09:40:59;;;;;;;0.00;0.00;;;;;;;7.21;94.73;101863.44;4977894;28;20022;-75
2023/11/22 09:43:26;;;;;;;0.00;0.00;;;;;;;7.30;94.78;101889.41;5003069;28;20060;-75
2023/11/22 09:45:54;;;;;;;0.00;0.00;;;;;;;7.26;94.49;101866.38;4944478;28;20045;-75
2023/11/22 09:48:26;;;;;;;0.00;0.00;;;;;;;7.37;94.89;101878.53;4977665;28;20117;-75
2023/11/22 09:51:23;;;;;;;0.00;0.00;;;;;;;7.38;94.66;101880.22;4969650;28;20386;-76
2023/11/22 09:54:07;;;;;;;0.00;0.00;;;;;;;7.54;94.17;101898.00;4973874;28;20109;-75
2023/11/22 09:56:33;;;;;;;0.00;0.00;;;;;;;7.60;94.19;101895.25;4979806;28;20022;-76
2023/11/22 09:59:01;;;;;;;0.00;0.00;;;;;;;7.89;93.10;101889.59;4978608;28;20022;-75
2023/11/22 10:01:36;;;;;;;0.00;0.00;;;;;;;8.13;92.00;101879.88;4981941;28;20035;-77
2023/11/22 10:04:09;;;;;;;0.00;0.00;;;;;;;8.40;90.20;101880.63;4969851;28;20022;-75
2023/11/22 10:06:39;;;;;;;0.00;0.00;;;;;;;8.55;88.11;101878.50;4983770;28;20026;-75
2023/11/22 10:09:08;;;;;;;0.00;0.00;;;;;;;8.63;87.49;101865.66;4968897;28;20034;-75
2023/11/22 10:11:38;;;;;;;0.00;0.00;;;;;;;9.12;87.15;101890.56;4970522;28;20109;-76
2023/11/22 10:14:04;;;;;;;0.00;0.00;;;;;;;9.53;85.43;101909.13;4981240;28;20445;-76
2023/11/22 10:16:30;;;;;;;0.00;0.00;;;;;;;9.74;85.16;101915.28;4968865;28;20058;-77
2023/11/22 10:18:55;;;;;;;0.00;0.00;;;;;;;9.89;84.18;101913.03;4960002;28;20057;-76
2023/11/22 10:21:30;;;;;;;0.00;0.00;;;;;;;9.78;83.67;101902.84;4953987;28;20853;-75
2023/11/22 10:24:03;;;;;;;0.00;0.00;;;;;;;9.74;84.13;101909.84;4980301;28;20093;-76
2023/11/22 10:26:29;;;;;;;0.00;0.00;;;;;;;9.71;83.88;101921.19;4962015;28;20043;-75
2023/11/22 10:28:56;;;;;;;0.00;0.00;;;;;;;9.58;83.90;101892.94;4966071;28;20043;-75
2023/11/22 10:31:23;;;;;;;0.00;0.00;;;;;;;9.86;83.33;101901.72;4976207;28;20064;-77
2023/11/22 10:33:57;;;;;;;0.00;0.00;;;;;;;10.21;81.99;101887.50;4970459;28;20110;-76
2023/11/22 10:36:23;;;;;;;0.00;0.00;;;;;;;10.86;79.01;101884.16;4960171;28;20034;-75
2023/11/22 10:38:50;;;;;;;0.00;0.00;;;;;;;11.37;76.36;101900.25;4977235;28;20035;-75
2023/11/22 10:41:24;;;;;;;0.00;0.00;;;;;;;11.53;75.52;101888.59;4980499;28;20046;-76
2023/11/22 10:43:55;;;;;;;0.00;0.00;;;;;;;11.78;73.60;101909.47;4990245;28;20140;-76
2023/11/22 10:46:24;;;;;;;0.00;0.00;;;;;;;11.80;73.50;101921.88;4973696;28;20477;-75
2023/11/22 10:48:49;;;;;;;0.00;0.00;;;;;;;11.74;71.35;101928.31;4974433;28;20460;-75
2023/11/22 10:51:16;;;;;;;0.00;0.00;;;;;;;11.57;72.29;101876.09;4978720;28;20085;-75
2023/11/22 10:53:49;;;;;;;0.00;0.00;;;;;;;11.75;72.40;101891.59;4965665;28;20034;-75
2023/11/22 10:56:15;;;;;;;0.00;0.00;;;;;;;11.88;72.24;101912.44;4976047;28;20041;-76
2023/11/22 10:58:51;;;;;;;0.00;0.00;;;;;;;11.70;71.74;101899.69;4976900;28;20103;-76
2023/11/22 11:01:19;;;;;;;0.00;0.00;;;;;;;11.50;71.96;101873.47;4978714;28;20066;-76
2023/11/22 11:04:11;;;;;;;0.00;0.00;;;;;;;11.38;71.84;101899.19;4968254;28;20031;-76
2023/11/22 11:06:38;;;;;;;0.00;0.00;;;;;;;11.21;73.43;101877.94;4993884;28;20027;-74
2023/11/22 11:09:05;;;;;;;0.00;0.00;;;;;;;11.09;73.65;101856.00;4971274;28;20442;-76
2023/11/22 11:11:34;;;;;;;0.00;0.00;;;;;;;11.09;74.30;101885.31;4976976;28;20114;-75
2023/11/22 11:14:05;;;;;;;0.00;0.00;;;;;;;10.95;75.08;101901.94;4978956;28;20477;-75
2023/11/22 11:16:34;;;;;;;0.00;0.00;;;;;;;10.71;75.50;101870.88;4983771;28;20045;-75
2023/11/22 11:19:01;;;;;;;0.00;0.00;;;;;;;10.47;75.75;101861.75;4973182;28;20094;-76
2023/11/22 11:21:29;;;;;;;0.00;0.00;;;;;;;10.41;76.80;101870.84;4976281;28;20537;-74
2023/11/22 11:24:07;;;;;;;;;;;;;;;;;;;;;
2023/11/22 11:26:36;;;;;;;0.00;0.00;;;;;;;10.44;77.48;101870.38;4973885;28;20021;-75
2023/11/22 11:29:06;;;;;;;0.00;0.00;;;;;;;10.57;77.19;101862.03;4973634;28;20026;-75
2023/11/22 11:31:39;;;;;;;0.00;0.00;;;;;;;10.67;76.68;101869.69;4979790;28;20037;-75
2023/11/22 11:34:07;;;;;;;0.00;0.00;;;;;;;10.76;76.46;101878.41;4967295;28;20081;-76
2023/11/22 11:36:39;;;;;;;0.00;0.00;;;;;;;10.79;76.43;101883.41;4973603;28;20026;-76
2023/11/22 11:39:14;;;;;;;0.00;0.00;;;;;;;10.54;76.66;101861.66;4990232;28;20027;-75